createdAt,value
2018-02-06T00:01:01.257Z,86.69
2018-02-06T00:02:07.588Z,86.72
2018-02-06T00:03:15.298Z,86.57
2018-02-06T00:04:22.103Z,86.76
2018-02-06T00:05:28.476Z,87.06
2018-02-06T00:06:35.592Z,87.05
2018-02-06T00:07:41.914Z,86.93
2018-02-06T00:08:48.101Z,86.95
2018-02-06T00:09:54.311Z,87.05
2018-02-06T00:11:00.703Z,87.06
2018-02-06T00:12:07.954Z,86.85
2018-02-06T00:13:14.098Z,86.82
2018-02-06T00:14:20.412Z,86.71
2018-02-06T00:15:26.686Z,87.07
2018-02-06T00:16:32.953Z,87.06
2018-02-06T00:17:39.198Z,87.03
2018-02-06T00:18:45.353Z,86.99
2018-02-06T00:19:51.266Z,86.82
2018-02-06T00:20:57.449Z,86.76
2018-02-06T00:22:06.451Z,86.59
2018-02-06T00:23:12.372Z,86.53
2018-02-06T00:24:18.712Z,86.66
2018-02-06T00:25:26.129Z,86.47
2018-02-06T00:26:32.496Z,86.65
2018-02-06T00:27:46.824Z,86.54
2018-02-06T00:28:53.167Z,86.69
2018-02-06T00:29:59.369Z,86.65
2018-02-06T00:31:05.511Z,86.35
2018-02-06T00:32:11.696Z,86.24
2018-02-06T00:33:17.958Z,86.40
2018-02-06T00:34:24.102Z,86.40
2018-02-06T00:35:30.341Z,86.63
2018-02-06T00:36:36.452Z,86.78
2018-02-06T00:37:42.641Z,86.67
2018-02-06T00:38:49.412Z,86.65
2018-02-06T00:39:55.836Z,86.83
2018-02-06T00:41:02.073Z,86.93
2018-02-06T00:42:08.551Z,86.57
2018-02-06T00:43:14.710Z,86.87
2018-02-06T00:44:21.039Z,87.16
2018-02-06T00:45:27.392Z,87.28
2018-02-06T00:46:33.594Z,87.20
2018-02-06T00:47:39.846Z,87.10
2018-02-06T00:48:45.987Z,87.05
2018-02-06T00:49:52.920Z,87.21
2018-02-06T00:50:59.119Z,87.33
2018-02-06T00:52:05.281Z,87.57
2018-02-06T00:53:11.777Z,87.68
2018-02-06T00:54:17.932Z,87.62
2018-02-06T00:55:24.436Z,87.34
2018-02-06T00:56:30.584Z,86.88
2018-02-06T00:57:39.980Z,86.55
2018-02-06T00:58:46.261Z,86.33
2018-02-06T00:59:52.592Z,86.89
2018-02-06T01:00:58.985Z,87.36
2018-02-06T01:02:05.196Z,87.48
2018-02-06T01:03:15.056Z,87.36
2018-02-06T01:04:21.137Z,87.17
2018-02-06T01:05:27.416Z,87.00
2018-02-06T01:06:34.000Z,86.83
2018-02-06T01:07:40.255Z,86.75
2018-02-06T01:08:46.583Z,86.52
2018-02-06T01:09:52.958Z,85.79
2018-02-06T01:10:59.737Z,86.18
2018-02-06T01:12:06.027Z,86.28
2018-02-06T01:13:12.455Z,86.28
2018-02-06T01:14:18.731Z,86.21
2018-02-06T01:15:24.985Z,86.50
2018-02-06T01:16:31.147Z,86.61
2018-02-06T01:17:37.411Z,86.83
2018-02-06T01:18:43.576Z,87.14
2018-02-06T01:19:49.804Z,87.04
2018-02-06T01:20:56.007Z,87.09
2018-02-06T01:22:02.209Z,86.84
2018-02-06T01:23:08.354Z,86.53
2018-02-06T01:24:14.501Z,86.42
2018-02-06T01:25:20.418Z,86.30
2018-02-06T01:26:27.570Z,86.50
2018-02-06T01:27:34.010Z,87.08
2018-02-06T01:28:40.212Z,87.27
2018-02-06T01:29:48.415Z,87.20
2018-02-06T01:30:54.702Z,87.27
2018-02-06T01:32:01.043Z,87.17
2018-02-06T01:33:07.276Z,86.97
2018-02-06T01:34:13.453Z,87.25
2018-02-06T01:35:19.594Z,87.02
2018-02-06T01:36:25.804Z,87.12
2018-02-06T01:37:32.037Z,87.27
2018-02-06T01:38:38.448Z,87.21
2018-02-06T01:39:44.596Z,87.31
2018-02-06T01:40:51.006Z,87.29
2018-02-06T01:41:57.298Z,87.13
2018-02-06T01:43:04.360Z,87.22
2018-02-06T01:44:10.556Z,86.97
2018-02-06T01:45:16.775Z,87.29
2018-02-06T01:46:23.275Z,87.32
2018-02-06T01:47:29.424Z,87.45
2018-02-06T01:48:35.741Z,88.00
2018-02-06T01:49:50.033Z,88.12
2018-02-06T01:50:55.940Z,87.90
2018-02-06T01:52:02.174Z,87.93
2018-02-06T01:53:08.405Z,87.87
2018-02-06T01:54:14.570Z,87.83
2018-02-06T01:55:20.882Z,87.67
2018-02-06T01:56:27.088Z,87.68
2018-02-06T01:57:33.186Z,87.47
2018-02-06T01:58:39.364Z,87.36
2018-02-06T01:59:45.689Z,87.34
2018-02-06T02:00:51.953Z,87.10
2018-02-06T02:01:58.841Z,87.01
2018-02-06T02:03:05.124Z,86.90
2018-02-06T02:04:12.069Z,86.60
2018-02-06T02:05:19.114Z,86.78
2018-02-06T02:06:25.308Z,86.86
2018-02-06T02:07:31.368Z,86.88
2018-02-06T02:08:37.571Z,87.14
2018-02-06T02:09:43.496Z,87.27
2018-02-06T02:10:49.800Z,87.43
2018-02-06T02:11:56.093Z,87.42
2018-02-06T02:13:01.976Z,87.32
2018-02-06T02:14:08.176Z,87.81
2018-02-06T02:15:14.401Z,88.20
2018-02-06T02:16:20.336Z,88.34
2018-02-06T02:17:26.206Z,88.30
2018-02-06T02:18:32.564Z,88.39
2018-02-06T02:19:38.811Z,88.60
2018-02-06T02:20:47.108Z,88.61
2018-02-06T02:21:53.888Z,88.74
2018-02-06T02:22:59.786Z,88.88
2018-02-06T02:24:06.992Z,88.72
2018-02-06T02:25:13.336Z,88.65
2018-02-06T02:26:19.574Z,88.61
2018-02-06T02:27:27.007Z,88.34
2018-02-06T02:28:33.268Z,88.24
2018-02-06T02:29:39.563Z,88.07
2018-02-06T02:30:45.947Z,87.75
2018-02-06T02:31:52.467Z,87.71
2018-02-06T02:32:58.683Z,87.94
2018-02-06T02:34:04.879Z,87.95
2018-02-06T02:35:11.453Z,87.86
2018-02-06T02:36:17.602Z,87.88
2018-02-06T02:37:23.735Z,87.83
2018-02-06T02:38:29.903Z,87.95
2018-02-06T02:39:36.083Z,87.84
2018-02-06T02:40:42.275Z,87.67
2018-02-06T04:39:09.252Z,86.07
2018-02-06T04:40:15.403Z,85.82
2018-02-06T04:41:21.359Z,85.70
2018-02-06T04:42:27.541Z,85.77
2018-02-06T04:43:35.102Z,85.32
2018-02-06T04:44:41.044Z,85.46
2018-02-06T04:45:46.992Z,86.01
2018-02-06T04:46:53.176Z,86.08
2018-02-06T04:47:59.387Z,86.01
2018-02-06T04:49:05.369Z,85.96
2018-02-06T04:50:11.537Z,85.83
2018-02-06T04:51:17.515Z,85.90
2018-02-06T04:52:23.795Z,85.88
2018-02-06T04:53:30.295Z,85.73
2018-02-06T04:54:36.479Z,86.00
2018-02-06T04:55:42.614Z,85.77
2018-02-06T04:56:48.809Z,85.61
2018-02-06T04:57:54.967Z,85.72
2018-02-06T04:59:01.262Z,85.64
2018-02-06T05:00:08.341Z,85.79
2018-02-06T05:01:14.291Z,85.91
2018-02-06T05:02:20.646Z,85.64
2018-02-06T05:03:26.827Z,85.74
2018-02-06T05:04:33.019Z,85.91
2018-02-06T05:05:39.217Z,85.90
2018-02-06T05:06:45.429Z,85.98
2018-02-06T05:07:51.735Z,85.77
2018-02-06T05:08:58.741Z,85.44
2018-02-06T05:10:04.769Z,84.84
2018-02-06T05:11:10.941Z,85.19
2018-02-06T05:12:17.157Z,85.49
2018-02-06T05:13:23.327Z,85.27
2018-02-06T05:14:29.624Z,84.88
2018-02-06T05:15:35.813Z,85.10
2018-02-06T05:16:42.044Z,85.29
2018-02-06T05:17:48.253Z,85.34
2018-02-06T05:18:54.462Z,85.19
2018-02-06T05:20:01.519Z,85.35
2018-02-06T05:21:07.444Z,85.41
2018-02-06T05:22:13.647Z,84.83
2018-02-06T05:23:19.797Z,84.68
2018-02-06T05:24:26.100Z,84.95
2018-02-06T05:25:32.284Z,84.92
2018-02-06T05:26:38.236Z,84.73
2018-02-06T05:27:44.431Z,84.74
2018-02-06T05:28:50.644Z,84.48
2018-02-06T05:29:56.795Z,84.48
2018-02-06T05:31:02.692Z,84.74
2018-02-06T05:32:08.979Z,84.98
2018-02-06T05:33:15.111Z,85.34
2018-02-06T05:34:21.304Z,85.17
2018-02-06T05:35:27.477Z,85.25
2018-02-06T05:36:33.754Z,85.14
2018-02-06T05:37:40.276Z,85.23
2018-02-06T05:38:58.158Z,85.27
2018-02-06T05:40:04.365Z,85.41
2018-02-06T05:41:10.541Z,85.12
2018-02-06T05:42:16.728Z,85.04
2018-02-06T05:43:22.839Z,85.33
2018-02-06T05:44:29.144Z,85.48
2018-02-06T05:45:37.349Z,85.71
2018-02-06T05:46:43.632Z,86.06
2018-02-06T05:47:49.899Z,86.31
2018-02-06T05:48:56.182Z,86.57
2018-02-06T05:50:02.515Z,86.89
2018-02-06T05:51:08.672Z,86.81
2018-02-06T05:52:14.829Z,86.62
2018-02-06T05:53:20.997Z,86.35
2018-02-06T05:54:27.207Z,86.14
2018-02-06T05:55:33.368Z,85.76
2018-02-06T05:56:39.508Z,85.80
2018-02-06T05:57:45.729Z,85.32
2018-02-06T05:58:51.943Z,85.45
2018-02-06T05:59:58.143Z,85.30
2018-02-06T06:01:04.391Z,85.31
2018-02-06T06:02:11.604Z,85.69
2018-02-06T06:03:17.856Z,85.93
2018-02-06T06:04:24.052Z,86.16
2018-02-06T06:05:30.205Z,86.22
2018-02-06T06:06:36.431Z,86.53
2018-02-06T06:07:42.616Z,87.23
2018-02-06T06:08:48.799Z,87.63
2018-02-06T06:09:54.978Z,87.49
2018-02-06T06:11:01.270Z,87.91
2018-02-06T06:12:07.677Z,88.17
2018-02-06T06:13:13.812Z,88.11
2018-02-06T06:14:20.072Z,87.89
2018-02-06T06:15:25.976Z,87.72
2018-02-06T06:16:32.216Z,87.09
2018-02-06T06:17:43.780Z,86.84
2018-02-06T06:18:49.996Z,86.85
2018-02-06T06:19:55.852Z,86.82
2018-02-06T06:21:02.056Z,86.88
2018-02-06T06:22:08.588Z,86.56
2018-02-06T06:23:14.811Z,85.64
2018-02-06T06:24:20.969Z,85.56
2018-02-06T06:25:27.139Z,84.98
2018-02-06T06:26:33.244Z,85.26
2018-02-06T06:27:39.396Z,85.98
2018-02-06T06:28:45.574Z,85.95
2018-02-06T06:29:51.797Z,85.66
2018-02-06T06:30:58.053Z,85.12
2018-02-06T06:32:04.319Z,84.74
2018-02-06T06:33:10.598Z,84.68
2018-02-06T06:34:16.826Z,85.26
2018-02-06T06:35:23.124Z,85.57
2018-02-06T06:36:29.602Z,85.38
2018-02-06T06:37:35.795Z,84.96
2018-02-06T06:38:42.055Z,84.68
2018-02-06T06:39:48.218Z,84.33
2018-02-06T06:40:54.436Z,84.14
2018-02-06T06:42:00.724Z,83.62
2018-02-06T06:43:07.008Z,83.82
2018-02-06T06:44:13.201Z,83.65
2018-02-06T06:45:19.433Z,83.43
2018-02-06T06:46:25.654Z,83.35
2018-02-06T06:47:31.847Z,83.59
2018-02-06T06:48:37.989Z,83.90
2018-02-06T06:49:44.329Z,84.09
2018-02-06T06:50:50.743Z,84.18
2018-02-06T06:51:56.878Z,84.25
2018-02-06T06:53:03.012Z,84.59
2018-02-06T06:54:09.161Z,84.96
2018-02-06T06:55:15.366Z,85.13
2018-02-06T06:56:21.556Z,85.33
2018-02-06T06:57:27.697Z,85.08
2018-02-06T06:58:33.875Z,84.97
2018-02-06T06:59:39.753Z,84.72
2018-02-06T07:00:46.034Z,84.53
2018-02-06T07:01:52.129Z,84.58
2018-02-06T07:02:58.314Z,84.81
2018-02-06T07:04:04.511Z,84.63
2018-02-06T07:05:10.454Z,84.83
2018-02-06T07:06:16.639Z,84.34
2018-02-06T07:07:22.830Z,84.56
2018-02-06T07:08:28.983Z,84.97
2018-02-06T07:09:35.116Z,84.95
2018-02-06T07:10:41.296Z,85.31
2018-02-06T07:11:47.606Z,85.58
2018-02-06T07:12:59.702Z,85.78
2018-02-06T07:14:05.916Z,85.71
2018-02-06T07:15:11.756Z,85.73
2018-02-06T07:16:17.949Z,85.95
2018-02-06T07:17:23.816Z,85.71
2018-02-06T07:18:29.942Z,85.91
2018-02-06T07:19:35.908Z,85.90
2018-02-06T07:20:42.065Z,85.70
2018-02-06T07:21:48.334Z,85.43
2018-02-06T07:22:56.486Z,85.47
2018-02-06T07:24:02.713Z,85.40
2018-02-06T07:25:08.873Z,84.69
2018-02-06T07:26:15.106Z,84.20
2018-02-06T07:27:21.528Z,83.93
2018-02-06T07:28:27.883Z,83.99
2018-02-06T07:29:34.099Z,83.91
2018-02-06T07:30:40.540Z,83.84
2018-02-06T07:31:47.103Z,83.93
2018-02-06T07:32:53.360Z,83.96
2018-02-06T07:33:59.340Z,84.21
2018-02-06T07:35:05.551Z,84.74
2018-02-06T07:36:11.759Z,84.97
2018-02-06T07:37:18.761Z,85.14
2018-02-06T07:38:25.061Z,85.37
2018-02-06T07:39:31.272Z,85.71
2018-02-06T07:40:37.270Z,85.79
2018-02-06T07:41:43.435Z,85.97
2018-02-06T07:42:49.614Z,86.01
2018-02-06T07:43:55.482Z,86.05
2018-02-06T07:45:01.867Z,86.74
2018-02-06T07:46:08.068Z,88.42
2018-02-06T07:47:14.433Z,89.57
2018-02-06T07:48:20.718Z,90.43
2018-02-06T07:49:26.938Z,91.24
2018-02-06T07:50:33.181Z,91.39
2018-02-06T07:51:39.401Z,90.93
2018-02-06T07:52:45.633Z,91.08
2018-02-06T07:53:51.761Z,90.96
2018-02-06T07:54:57.990Z,90.94
2018-02-06T07:56:04.355Z,90.66
2018-02-06T07:57:10.533Z,90.48
2018-02-06T07:58:17.023Z,90.29
2018-02-06T07:59:23.160Z,91.38
2018-02-06T08:00:29.319Z,91.38
2018-02-06T08:01:35.543Z,91.09
2018-02-06T08:02:42.588Z,91.27
2018-02-06T08:03:48.910Z,90.89
2018-02-06T08:04:54.875Z,90.76
2018-02-06T08:06:01.124Z,91.01
2018-02-06T08:07:07.301Z,90.74
2018-02-06T08:08:13.223Z,90.49
2018-02-06T08:09:19.505Z,91.30
2018-02-06T08:10:30.896Z,90.81
2018-02-06T08:11:37.056Z,91.05
2018-02-06T08:12:43.240Z,90.91
2018-02-06T08:13:49.510Z,91.03
2018-02-06T08:14:55.698Z,90.93
2018-02-06T08:16:01.931Z,91.11
2018-02-06T08:17:09.259Z,90.90
2018-02-06T08:18:15.240Z,90.79
2018-02-06T08:19:21.605Z,90.39
2018-02-06T08:20:27.804Z,90.44
2018-02-06T08:21:34.832Z,90.10
2018-02-06T08:22:40.998Z,89.88
2018-02-06T08:23:47.153Z,89.23
2018-02-06T08:24:53.002Z,88.81
2018-02-06T08:25:59.415Z,89.39
2018-02-06T08:27:05.374Z,88.58
2018-02-06T08:28:11.637Z,88.12
2018-02-06T08:29:17.888Z,88.50
2018-02-06T08:30:24.126Z,88.61
2018-02-06T08:31:30.069Z,88.35
2018-02-06T08:32:36.389Z,88.92
2018-02-06T08:33:43.308Z,89.02
2018-02-06T08:34:49.525Z,88.68
2018-02-06T08:35:55.940Z,88.55
2018-02-06T08:37:02.284Z,88.66
2018-02-06T08:38:09.014Z,88.51
2018-02-06T08:39:15.274Z,88.11
2018-02-06T08:40:21.695Z,88.07
2018-02-06T08:41:27.851Z,88.23
2018-02-06T08:42:34.342Z,87.92
2018-02-06T08:43:40.560Z,87.46
2018-02-06T08:44:46.409Z,87.29
2018-02-06T08:45:53.088Z,87.46
2018-02-06T08:46:59.925Z,87.65
2018-02-06T08:48:06.632Z,87.07
2018-02-06T08:49:12.599Z,86.50
2018-02-06T08:50:18.919Z,86.53
2018-02-06T08:51:25.152Z,86.61
2018-02-06T08:52:31.398Z,86.30
2018-02-06T08:53:37.282Z,86.02
2018-02-06T08:54:44.529Z,85.93
2018-02-06T08:55:50.523Z,86.33
2018-02-06T08:56:56.930Z,85.91
2018-02-06T08:58:03.521Z,85.41
2018-02-06T08:59:09.723Z,84.86
2018-02-06T09:00:15.937Z,84.61
2018-02-06T09:01:21.808Z,84.70
2018-02-06T09:02:28.404Z,84.66
2018-02-06T09:03:34.599Z,85.58
2018-02-06T09:04:41.444Z,85.44
2018-02-06T09:05:48.684Z,85.08
2018-02-06T09:06:54.990Z,84.51
2018-02-06T09:08:02.420Z,84.57
2018-02-06T09:09:11.081Z,84.60
2018-02-06T09:10:17.527Z,84.88
2018-02-06T09:11:23.732Z,83.95
2018-02-06T09:12:29.881Z,84.11
2018-02-06T09:13:36.102Z,84.39
2018-02-06T09:14:42.640Z,84.25
2018-02-06T09:15:48.945Z,83.54
2018-02-06T09:16:55.176Z,82.74
2018-02-06T09:18:01.371Z,83.13
2018-02-06T09:19:07.378Z,83.59
2018-02-06T09:20:13.265Z,83.29
2018-02-06T09:21:19.568Z,82.80
2018-02-06T09:22:25.514Z,81.28
2018-02-06T09:23:32.308Z,80.31
2018-02-06T09:24:38.579Z,80.56
2018-02-06T09:25:44.731Z,80.76
2018-02-06T09:26:51.010Z,80.55
2018-02-06T09:27:57.091Z,80.78
2018-02-06T09:29:03.375Z,81.44
2018-02-06T09:30:09.664Z,81.19
2018-02-06T09:31:15.799Z,81.26
2018-02-06T09:32:21.704Z,80.96
2018-02-06T09:33:27.912Z,80.76
2018-02-06T09:34:34.062Z,80.34
2018-02-06T09:35:41.201Z,80.58
2018-02-06T09:36:47.566Z,79.96
2018-02-06T09:37:55.003Z,79.79
2018-02-06T09:39:01.651Z,80.06
2018-02-06T09:40:07.668Z,79.38
2018-02-06T09:41:13.873Z,79.60
2018-02-06T09:42:20.170Z,79.29
2018-02-06T09:43:26.413Z,80.19
2018-02-06T09:44:32.543Z,80.12
2018-02-06T09:45:38.852Z,79.97
2018-02-06T09:46:44.744Z,79.45
2018-02-06T09:47:51.594Z,79.64
2018-02-06T09:48:57.912Z,79.97
2018-02-06T09:50:03.747Z,80.01
2018-02-06T09:51:09.964Z,79.65
2018-02-06T09:52:15.922Z,79.23
2018-02-06T09:53:22.084Z,78.77
2018-02-06T09:54:27.649Z,77.87
2018-02-06T09:55:33.802Z,78.10
2018-02-06T09:56:39.984Z,78.79
2018-02-06T09:57:46.276Z,79.10
2018-02-06T09:58:52.651Z,79.16
2018-02-06T09:59:58.892Z,79.08
2018-02-06T10:01:05.050Z,79.37
2018-02-06T10:02:11.229Z,78.96
2018-02-06T10:03:17.432Z,78.03
2018-02-06T10:04:23.776Z,76.11
2018-02-06T10:05:29.927Z,75.96
2018-02-06T10:06:36.206Z,76.41
2018-02-06T10:07:42.438Z,75.96
2018-02-06T10:08:48.654Z,76.28
2018-02-06T10:09:54.953Z,76.21
2018-02-06T10:11:01.090Z,76.90
2018-02-06T10:12:07.296Z,76.86
2018-02-06T10:13:13.575Z,77.36
2018-02-06T10:14:19.912Z,78.00
2018-02-06T10:15:26.119Z,78.53
2018-02-06T10:16:32.405Z,77.86
2018-02-06T10:17:38.883Z,77.44
2018-02-06T10:18:45.364Z,77.39
2018-02-06T10:21:02.512Z,77.19
2018-02-06T10:22:08.840Z,76.71
2018-02-06T10:23:15.228Z,76.40
2018-02-06T10:24:21.057Z,77.05
2018-02-06T10:25:27.193Z,77.00
2018-02-06T10:26:33.423Z,77.40
2018-02-06T10:27:40.307Z,76.31
2018-02-06T10:28:46.623Z,75.92
2018-02-06T10:29:53.739Z,76.18
2018-02-06T10:31:00.973Z,76.05
2018-02-06T10:32:07.112Z,75.92
2018-02-06T10:33:13.154Z,77.01
2018-02-06T10:34:20.316Z,76.83
2018-02-06T10:35:28.295Z,75.16
2018-02-06T10:36:34.505Z,74.56
2018-02-06T10:37:40.688Z,75.66
2018-02-06T10:38:47.246Z,75.43
2018-02-06T10:39:53.470Z,74.85
2018-02-06T10:40:59.700Z,75.15
2018-02-06T10:42:05.852Z,74.76
2018-02-06T10:43:12.236Z,74.06
2018-02-06T10:44:18.428Z,74.67
2018-02-06T10:45:25.697Z,74.76
2018-02-06T10:46:31.947Z,74.51
2018-02-06T10:47:38.385Z,74.86
2018-02-06T10:48:44.552Z,74.78
2018-02-06T10:49:50.400Z,75.25
2018-02-06T10:50:56.556Z,75.95
2018-02-06T10:52:03.556Z,76.62
2018-02-06T10:53:10.676Z,76.91
2018-02-06T10:54:16.856Z,76.59
2018-02-06T10:55:23.151Z,76.35
2018-02-06T10:56:29.292Z,76.14
2018-02-06T10:57:35.485Z,77.47
2018-02-06T10:58:41.745Z,78.15
2018-02-06T10:59:48.141Z,78.91
2018-02-06T11:00:54.293Z,78.48
2018-02-06T11:02:00.423Z,77.57
2018-02-06T11:03:08.132Z,77.50
2018-02-06T11:04:14.368Z,76.79
2018-02-06T11:05:20.533Z,77.48
2018-02-06T11:06:26.698Z,78.14
2018-02-06T11:07:32.904Z,77.56
2018-02-06T11:08:38.898Z,77.58
2018-02-06T11:09:45.091Z,77.32
2018-02-06T11:10:52.416Z,76.50
2018-02-06T11:11:58.589Z,77.19
2018-02-06T11:13:04.746Z,76.08
2018-02-06T11:14:11.004Z,75.71
2018-02-06T11:15:17.416Z,76.20
2018-02-06T11:16:23.694Z,76.67
2018-02-06T11:17:30.005Z,76.05
2018-02-06T11:18:36.245Z,76.36
2018-02-06T11:19:42.424Z,76.60
2018-02-06T11:20:48.473Z,76.23
2018-02-06T11:21:54.702Z,76.65
2018-02-06T11:23:00.888Z,76.97
2018-02-06T11:24:07.142Z,76.74
2018-02-06T11:25:14.537Z,77.06
2018-02-06T11:26:20.966Z,76.03
2018-02-06T11:27:27.095Z,74.97
2018-02-06T11:28:33.189Z,75.46
2018-02-06T11:29:39.411Z,75.35
2018-02-06T11:30:46.414Z,76.65
2018-02-06T11:31:52.668Z,76.94
2018-02-06T11:32:58.891Z,76.98
2018-02-06T11:34:05.217Z,76.07
2018-02-06T11:35:11.359Z,77.29
2018-02-06T11:36:17.651Z,77.07
2018-02-06T11:37:24.718Z,76.39
2018-02-06T11:38:30.926Z,76.34
2018-02-06T11:39:37.170Z,74.43
2018-02-06T11:40:43.491Z,73.51
2018-02-06T11:41:50.533Z,73.58
2018-02-06T11:42:56.651Z,74.39
2018-02-06T11:44:04.135Z,74.90
2018-02-06T11:45:10.347Z,74.91
2018-02-06T11:46:16.494Z,74.19
2018-02-06T11:47:22.686Z,73.82
2018-02-06T11:48:28.872Z,74.25
2018-02-06T11:49:35.306Z,74.69
2018-02-06T11:50:41.678Z,74.67
2018-02-06T11:51:47.917Z,74.76
2018-02-06T11:52:54.081Z,74.63
2018-02-06T11:54:00.289Z,74.08
2018-02-06T11:55:06.476Z,73.91
2018-02-06T11:56:12.721Z,73.90
2018-02-06T11:57:18.892Z,73.88
2018-02-06T11:58:25.128Z,73.52
2018-02-06T11:59:36.820Z,74.00
2018-02-06T12:00:43.014Z,73.43
2018-02-06T12:01:49.286Z,73.54
2018-02-06T12:02:55.550Z,73.18
2018-02-06T12:04:01.707Z,72.60
2018-02-06T12:05:07.965Z,71.92
2018-02-06T12:06:14.172Z,73.03
2018-02-06T12:07:20.376Z,72.48
2018-02-06T12:08:26.479Z,72.10
2018-02-06T12:09:32.721Z,71.63
2018-02-06T12:10:38.884Z,71.59
2018-02-06T12:11:45.089Z,71.33
2018-02-06T12:12:51.238Z,71.40
2018-02-06T12:13:57.417Z,71.81
2018-02-06T12:15:03.580Z,72.52
2018-02-06T12:16:10.350Z,72.16
2018-02-06T12:17:16.529Z,72.70
2018-02-06T12:18:22.715Z,72.83
2018-02-06T12:19:28.929Z,73.17
2018-02-06T12:20:35.207Z,72.90
2018-02-06T12:21:41.560Z,72.69
2018-02-06T12:22:47.716Z,72.71
2018-02-06T12:23:53.989Z,72.35
2018-02-06T12:25:00.347Z,72.24
2018-02-06T12:26:06.578Z,72.50
2018-02-06T12:27:12.799Z,72.59
2018-02-06T12:28:19.000Z,72.69
2018-02-06T12:29:25.178Z,72.50
2018-02-06T12:30:31.376Z,72.30
2018-02-06T12:31:42.210Z,71.95
2018-02-06T12:32:48.420Z,72.19
2018-02-06T12:33:55.474Z,72.33
2018-02-06T12:35:01.656Z,72.94
2018-02-06T12:36:07.829Z,73.16
2018-02-06T12:37:14.018Z,72.83
2018-02-06T12:38:20.147Z,72.92
2018-02-06T12:39:26.384Z,72.71
2018-02-06T12:40:32.597Z,73.36
2018-02-06T12:41:38.845Z,73.50
2018-02-06T12:42:44.989Z,73.72
2018-02-06T12:43:51.191Z,73.48
2018-02-06T12:44:57.779Z,73.13
2018-02-06T12:46:03.945Z,72.98
2018-02-06T12:47:10.218Z,72.81
2018-02-06T12:48:16.116Z,72.94
2018-02-06T12:49:22.304Z,73.24
2018-02-06T12:50:28.491Z,73.87
2018-02-06T12:51:34.685Z,74.28
2018-02-06T12:52:40.804Z,74.33
2018-02-06T12:53:47.060Z,74.45
2018-02-06T12:54:53.304Z,74.52
2018-02-06T12:55:59.516Z,74.24
2018-02-06T12:57:05.704Z,73.72
2018-02-06T12:58:11.925Z,72.81
2018-02-06T12:59:18.936Z,72.48
2018-02-06T13:00:25.134Z,73.33
2018-02-06T13:01:31.056Z,73.67
2018-02-06T13:02:37.264Z,73.76
2018-02-06T13:03:44.764Z,73.67
2018-02-06T13:04:51.331Z,73.39
2018-02-06T13:05:57.559Z,73.80
2018-02-06T13:07:03.793Z,74.47
2018-02-06T13:08:09.061Z,74.24
2018-02-06T13:09:15.246Z,73.85
2018-02-06T13:10:21.407Z,74.14
2018-02-06T13:11:27.805Z,73.31
2018-02-06T13:12:43.867Z,73.55
2018-02-06T13:13:50.119Z,74.07
2018-02-06T13:14:56.334Z,74.01
2018-02-06T13:16:02.522Z,73.44
2018-02-06T13:17:08.528Z,73.12
2018-02-06T13:18:14.469Z,74.00
2018-02-06T13:19:20.605Z,74.56
2018-02-06T13:20:26.739Z,74.74
2018-02-06T13:21:33.022Z,74.69
2018-02-06T13:22:39.221Z,74.09
2018-02-06T13:23:47.972Z,73.62
2018-02-06T13:24:54.148Z,73.70
2018-02-06T13:26:00.349Z,73.31
2018-02-06T13:27:06.574Z,73.27
2018-02-06T13:28:12.826Z,73.08
2018-02-06T13:29:19.019Z,73.19
2018-02-06T13:30:25.898Z,73.48
2018-02-06T13:31:31.838Z,72.93
2018-02-06T13:32:38.043Z,72.83
2018-02-06T13:33:44.441Z,72.56
2018-02-06T13:34:50.848Z,71.50
2018-02-06T13:35:56.656Z,72.12
2018-02-06T13:37:02.899Z,72.28
2018-02-06T13:38:09.228Z,72.56
2018-02-06T13:39:15.425Z,72.49
2018-02-06T13:40:21.693Z,73.11
2018-02-06T13:41:27.652Z,73.58
2018-02-06T13:42:33.852Z,73.35
2018-02-06T13:43:39.857Z,73.32
2018-02-06T13:44:46.057Z,72.82
2018-02-06T13:45:52.307Z,73.28
2018-02-06T13:46:58.552Z,73.49
2018-02-06T13:48:04.776Z,73.43
2018-02-06T13:49:10.963Z,73.38
2018-02-06T13:50:17.150Z,73.13
2018-02-06T13:51:27.295Z,73.14
2018-02-06T13:52:33.690Z,72.82
2018-02-06T13:53:39.909Z,72.50
2018-02-06T13:54:46.124Z,72.34
2018-02-06T13:55:52.276Z,72.38
2018-02-06T13:56:58.472Z,72.42
2018-02-06T13:58:04.720Z,73.14
2018-02-06T13:59:10.947Z,73.32
2018-02-06T14:00:17.167Z,73.62
2018-02-06T14:01:23.420Z,73.42
2018-02-06T14:02:29.671Z,73.11
2018-02-06T14:03:35.914Z,73.24
2018-02-06T14:04:42.073Z,73.34
2018-02-06T14:05:48.287Z,73.82
2018-02-06T14:06:54.566Z,73.90
2018-02-06T14:08:01.393Z,73.95
2018-02-06T14:09:07.572Z,73.39
2018-02-06T14:10:16.648Z,73.19
2018-02-06T14:11:22.883Z,73.89
2018-02-06T14:12:29.588Z,73.84
2018-02-06T14:13:36.010Z,73.61
2018-02-06T14:14:42.202Z,73.97
2018-02-06T14:15:48.449Z,73.82
2018-02-06T14:16:54.564Z,73.85
2018-02-06T14:18:00.804Z,74.21
2018-02-06T14:19:06.947Z,74.20
2018-02-06T14:20:13.210Z,74.30
2018-02-06T14:21:19.960Z,74.78
2018-02-06T14:22:26.217Z,74.91
2018-02-06T14:23:32.363Z,74.74
2018-02-06T14:24:38.551Z,74.84
2018-02-06T14:25:44.729Z,75.28
2018-02-06T14:26:50.989Z,74.98
2018-02-06T14:27:57.303Z,74.74
2018-02-06T14:29:04.064Z,74.97
2018-02-06T14:30:10.534Z,75.34
2018-02-06T14:31:16.799Z,74.82
2018-02-06T14:32:22.973Z,74.79
2018-02-06T14:33:28.805Z,75.17
2018-02-06T14:34:35.029Z,75.02
2018-02-06T14:35:41.218Z,75.11
2018-02-06T14:36:47.355Z,74.89
2018-02-06T14:37:53.827Z,74.79
2018-02-06T14:39:00.065Z,75.43
2018-02-06T14:40:06.200Z,75.45
2018-02-06T14:41:13.456Z,76.49
2018-02-06T14:42:29.182Z,75.34
2018-02-06T14:43:35.317Z,75.59
2018-02-06T14:44:41.492Z,75.89
2018-02-06T14:45:47.672Z,76.04
2018-02-06T14:46:53.843Z,76.14
2018-02-06T14:48:00.076Z,76.28
2018-02-06T14:49:06.224Z,76.11
2018-02-06T14:50:12.557Z,75.26
2018-02-06T14:51:18.682Z,75.24
2018-02-06T14:52:24.903Z,75.71
2018-02-06T14:53:31.138Z,75.83
2018-02-06T14:54:46.744Z,76.34
2018-02-06T14:55:54.127Z,76.17
2018-02-06T14:57:00.342Z,76.35
2018-02-06T14:58:07.612Z,76.91
2018-02-06T14:59:13.780Z,76.93
2018-02-06T15:00:20.173Z,76.83
2018-02-06T15:01:26.431Z,76.81
2018-02-06T15:02:32.847Z,76.42
2018-02-06T15:03:39.049Z,77.35
2018-02-06T15:04:45.242Z,77.27
2018-02-06T15:05:51.469Z,77.31
2018-02-06T15:06:58.610Z,77.30
2018-02-06T15:08:04.824Z,77.60
2018-02-06T15:09:11.132Z,77.68
2018-02-06T15:10:17.434Z,77.70
2018-02-06T15:11:23.633Z,77.95
2018-02-06T15:12:29.771Z,77.97
2018-02-06T15:13:36.814Z,78.30
2018-02-06T15:14:43.185Z,78.50
2018-02-06T15:15:49.389Z,78.69
2018-02-06T15:16:55.616Z,78.49
2018-02-06T15:18:02.035Z,78.51
2018-02-06T15:19:08.261Z,78.43
2018-02-06T15:20:14.447Z,78.02
2018-02-06T15:21:20.625Z,77.95
2018-02-06T15:22:26.785Z,78.22
2018-02-06T15:23:32.923Z,78.19
2018-02-06T15:24:39.270Z,78.35
2018-02-06T15:25:45.752Z,78.52
2018-02-06T15:26:51.983Z,78.43
2018-02-06T15:27:59.023Z,78.79
2018-02-06T15:29:04.969Z,78.71
2018-02-06T15:30:11.274Z,78.55
2018-02-06T15:31:17.405Z,78.99
2018-02-06T15:32:23.846Z,78.72
2018-02-06T15:33:30.057Z,78.70
2018-02-06T15:34:36.219Z,79.01
2018-02-06T15:35:42.451Z,78.86
2018-02-06T15:36:48.673Z,78.92
2018-02-06T15:37:54.974Z,78.81
2018-02-06T15:39:03.086Z,78.76
2018-02-06T15:40:09.025Z,79.13
2018-02-06T15:41:15.006Z,79.16
2018-02-06T15:42:21.219Z,79.25
2018-02-06T15:43:27.162Z,79.48
2018-02-06T15:44:34.435Z,79.23
2018-02-06T15:45:41.148Z,79.08
2018-02-06T15:46:47.511Z,79.08
2018-02-06T15:47:53.892Z,78.93
2018-02-06T15:49:00.219Z,78.79
2018-02-06T15:50:06.290Z,79.00
2018-02-06T15:51:12.473Z,79.24
2018-02-06T15:52:18.650Z,79.20
2018-02-06T15:53:24.772Z,79.36
2018-02-06T15:54:30.977Z,79.40
2018-02-06T15:55:36.979Z,79.62
2018-02-06T15:56:42.959Z,79.46
2018-02-06T15:57:49.180Z,79.31
2018-02-06T15:58:56.140Z,79.49
2018-02-06T16:00:02.367Z,79.60
2018-02-06T16:01:11.518Z,79.63
2018-02-06T16:02:17.996Z,79.83
2018-02-06T16:03:24.124Z,79.75
2018-02-06T16:04:30.365Z,79.80
2018-02-06T16:05:36.585Z,80.07
2018-02-06T16:06:42.781Z,80.44
2018-02-06T16:07:49.053Z,80.60
2018-02-06T16:08:55.365Z,80.51
2018-02-06T16:10:02.703Z,80.76
2018-02-06T16:11:08.860Z,81.15
2018-02-06T16:12:15.005Z,81.40
2018-02-06T16:13:20.916Z,81.92
2018-02-06T16:14:27.968Z,81.82